SVMG/PMV METAR and TAF weather

Enter ICAO airport designator
Station Type Date Time Source
SVMG METAR 2024/05/09 13:10 UTC NOAA

SVMG 091310Z 00000KT (E) 6000 +RA OVC017 28/26 Q1010


Station Type Date Time Source
SVMG Decoded METAR 2024/05/09 13:10 UTC NOAA

Margarita / Del Carib, Venezuela (SVMG) 10-55N 063-59W
May 09, 2024 - 09:10 AM EDT / 2024.05.09 1310 UTC
Wind: Calm:0
Visibility: 3 mile(s):0
Sky conditions: overcast
Weather: heavy rain
Temperature: 82 F (28 C)
Dew Point: 78 F (26 C)
Relative Humidity: 88%
Pressure (altimeter): 29.83 in. Hg (1010 hPa)
ob: SVMG 091310Z 00000KT (E) 6000 +RA OVC017 28/26 Q1010
cycle: 13

Station Type Date Time Source
SVMG TAF 2024/05/28 18:53 UTC NOAA